• Join FlightAware (Why Join?)
  • Login
  • US Flag 
05:23PM EDT


 

Airport Tracker/Info


-or-


 

Live Flight TrackerFlight Track Log ✈ ASH3738 ✈ 30-Apr-2013 ✈ KDFW - KORD

Flight Track Log - Related Links

Times and Time Zones

All times are in EDT time to prevent confusion due to time zone crossing. See the ASH3738 flight status page for this flight to view local times or setup timezone preferences in your user account.

Time Position Orientation Groundspeed Altitude Reporting Facility
EDT Latitude Longitude Course Direction KTS MPH feet Rate Location/Type
07:05PM 32.8833 -97.0333 164° South 169 194 1,400  Level Dallas / Fort Worth TRACON
07:06PM 32.8333 -97.0167 164° South 216 249 3,700 2,280 Climbing Dallas / Fort Worth TRACON
07:07PM 32.7833 -96.9667 140° Southeast 264 304 6,300 2,340 Climbing Dallas / Fort Worth TRACON
07:09PM 32.7842 -96.8378 90° East 249 287 10,000 1,920 Climbing Fort Worth Center
07:10PM 32.8653 -96.8150 13° North 263 303 11,400 1,920 Climbing Fort Worth Center
07:11PM 32.9739 -96.8117 North 305 351 13,900 2,280 Climbing Fort Worth Center
07:12PM 33.0658 -96.8136 359° North 352 405 16,000 2,280 Climbing Fort Worth Center
07:13PM 33.1786 -96.8153 359° North 374 430 18,500 2,100 Climbing Fort Worth Center
07:14PM 33.2767 -96.8194 358° North 381 438 20,300 1,920 Climbing Fort Worth Center
07:15PM 33.3956 -96.8164 North 381 438 22,400 1,920 Climbing Fort Worth Center
07:16PM 33.4892 -96.7533 29° Northeast 375 432 24,200 1,620 Climbing Fort Worth Center
07:17PM 33.5828 -96.6728 36° Northeast 394 453 25,700 1,380 Climbing Fort Worth Center
07:18PM 33.6761 -96.5947 35° Northeast 406 467 27,000 1,260 Climbing Fort Worth Center
07:19PM 33.7736 -96.5139 35° Northeast 420 483 28,300 1,260 Climbing Fort Worth Center
07:20PM 33.8689 -96.4328 35° Northeast 420 483 29,600 1,260 Climbing Fort Worth Center
07:21PM 33.9644 -96.3517 35° Northeast 420 483 30,900 1,260 Climbing Fort Worth Center
07:22PM 34.0639 -96.2678 35° Northeast 420 483 32,200 1,200 Climbing Fort Worth Center
07:23PM 34.1589 -96.1836 36° Northeast 420 483 33,300 1,140 Climbing Fort Worth Center
07:24PM 34.2583 -96.0994 35° Northeast 420 483 34,500 1,200 Climbing Fort Worth Center
07:25PM 34.3556 -96.0147 36° Northeast 420 483 35,700 1,080 Climbing Fort Worth Center
07:26PM 34.4525 -95.9328 35° Northeast 420 483 36,700 600 Climbing Fort Worth Center
07:27PM 34.5517 -95.8478 35° Northeast 420 483 37,000 120 Climbing Fort Worth Center
07:28PM 34.6508 -95.7628 35° Northeast 425 489 37,000  Level Fort Worth Center
07:29PM 34.7581 -95.6722 35° Northeast 438 504 37,000  Level Fort Worth Center
07:31PM 34.9206 -95.5361 34° Northeast 447 514 37,000  Level Memphis Center
07:32PM 35.0244 -95.4464 35° Northeast 452 520 37,000  Level Memphis Center
07:33PM 35.1261 -95.3558 36° Northeast 452 520 37,000  Level Memphis Center
07:34PM 35.2297 -95.2681 35° Northeast 452 520 37,000  Level Memphis Center
07:35PM 35.3269 -95.1822 36° Northeast 442 509 37,000  Level Memphis Center
07:36PM 35.4264 -95.0936 36° Northeast 442 509 37,000  Level Memphis Center
07:37PM 35.5256 -95.0050 36° Northeast 442 509 37,000  Level Memphis Center
07:38PM 35.6269 -94.9161 35° Northeast 442 509 37,000  Level Memphis Center
07:39PM 35.7261 -94.8269 36° Northeast 442 509 37,000  Level Memphis Center
07:40PM 35.8275 -94.7350 36° Northeast 442 509 37,000  Level Memphis Center
07:41PM 35.9394 -94.6333 36° Northeast 442 509 37,000  Level Memphis Center
07:42PM 36.0406 -94.5436 36° Northeast 447 514 37,000  Level Memphis Center
07:43PM 36.2022 -94.3964 36° Northeast 445 512 37,000  Level Kansas City Center
07:44PM 36.2997 -94.3061 37° Northeast 442 509 37,000  Level Kansas City Center
07:45PM 36.3989 -94.2169 36° Northeast 441 507 37,000  Level Kansas City Center
07:46PM 36.4978 -94.1269 36° Northeast 441 507 37,000  Level Kansas City Center
07:47PM 36.5953 -94.0369 37° Northeast 440 506 37,000  Level Kansas City Center
07:49PM 36.7122 -93.9289 37° Northeast 438 504 37,000  Level Kansas City Center
07:50PM 36.8089 -93.8397 36° Northeast 436 502 37,000  Level Kansas City Center
07:51PM 36.9058 -93.7497 37° Northeast 433 498 37,000  Level Kansas City Center
07:52PM 37.0022 -93.6619 36° Northeast 431 496 37,000  Level Kansas City Center
07:53PM 37.0981 -93.5742 36° Northeast 429 494 37,000  Level Kansas City Center
07:54PM 37.1931 -93.4833 37° Northeast 428 493 37,000  Level Kansas City Center
07:55PM 37.3078 -93.3761 37° Northeast 427 491 37,000  Level Kansas City Center
07:56PM 37.4044 -93.2883 36° Northeast 427 491 37,000  Level Kansas City Center
07:57PM 37.4997 -93.1994 36° Northeast 426 490 37,000  Level Kansas City Center
07:58PM 37.5953 -93.1106 36° Northeast 425 489 37,000  Level Kansas City Center
07:59PM 37.6925 -93.0219 36° Northeast 428 493 37,000  Level Kansas City Center
08:00PM 37.7878 -92.9331 36° Northeast 425 489 37,000  Level Kansas City Center
08:01PM 37.8839 -92.8433 36° Northeast 425 489 37,000  Level Kansas City Center
08:02PM 37.9869 -92.7467 36° Northeast 425 489 37,000  Level Kansas City Center
08:03PM 38.0819 -92.6575 36° Northeast 425 489 37,000  Level Kansas City Center
08:04PM 38.1933 -92.5547 36° Northeast 426 490 37,000  Level Kansas City Center
08:05PM 38.2897 -92.4631 37° Northeast 427 491 37,000  Level Kansas City Center
08:06PM 38.3856 -92.3708 37° Northeast 427 491 37,000  Level Kansas City Center
08:07PM 38.4814 -92.2803 36° Northeast 426 490 37,000 -540 Level Kansas City Center
08:08PM 38.5786 -92.1875 37° Northeast 427 491 35,900 -1,020 Descending Kansas City Center
08:09PM 38.6781 -92.0914 37° Northeast 437 503 35,000 -480 Descending Kansas City Center
08:10PM 38.7783 -91.9958 37° Northeast 443 510 35,000  Level Kansas City Center
08:11PM 38.8944 -91.8828 37° Northeast 440 506 35,000  Level Kansas City Center
08:12PM 38.9933 -91.7864 37° Northeast 441 507 35,000  Level Kansas City Center
08:13PM 39.0936 -91.6897 37° Northeast 446 513 35,000  Level Kansas City Center
08:14PM 39.1950 -91.5892 38° Northeast 452 520 35,000  Level Kansas City Center
08:15PM 39.2956 -91.4900 37° Northeast 455 524 35,000  Level Kansas City Center
08:16PM 39.3936 -91.3925 38° Northeast 449 517 35,000 -360 Level Kansas City Center
08:17PM 39.4906 -91.2986 37° Northeast 441 507 34,300 -840 Descending Kansas City Center
08:18PM 39.5878 -91.2003 38° Northeast 441 507 33,300 -660 Descending Kansas City Center
08:19PM 39.7125 -91.0961 33° Northeast 442 509 33,000 -180 Descending Kansas City Center
08:21PM 39.8283 -91.0264 25° Northeast 441 507 33,000  Level Kansas City Center
08:22PM 39.9428 -90.9581 25° Northeast 443 510 33,000  Level Kansas City Center
08:23PM 40.0511 -90.8772 30° Northeast 451 519 33,000  Level Kansas City Center
08:24PM 40.1483 -90.7697 40° Northeast 457 526 33,000  Level Kansas City Center
08:25PM 40.2242 -90.6836 41° Northeast 452 520 33,000  Level Chicago Center
08:26PM 40.3381 -90.5531 41° Northeast 452 520 33,000  Level Chicago Center
08:27PM 40.4314 -90.4444 42° Northeast 448 516 33,000  Level Chicago Center
08:28PM 40.5256 -90.3361 41° Northeast 447 514 33,000 -420 Level Chicago Center
08:29PM 40.6278 -90.2178 41° Northeast 450 518 32,200 -1,080 Descending Chicago Center
08:30PM 40.7219 -90.1078 42° Northeast 454 522 30,800 -1,440 Descending Chicago Center
08:31PM 40.8106 -89.9903 45° Northeast 452 520 29,300 -1,560 Descending Chicago Center
08:32PM 40.8828 -89.8597 54° Northeast 445 512 27,600 -1,680 Descending Chicago Center
08:33PM 40.9497 -89.7294 56° Northeast 436 502 25,900 -1,560 Descending Chicago Center
08:34PM 41.0319 -89.5883 52° Northeast 466 536 24,400 -1,500 Descending Chicago Center
08:35PM 41.1253 -89.4192 54° Northeast 472 543 22,800 -1,620 Descending Chicago Center
08:36PM 41.1989 -89.2869 53° Northeast 444 511 21,100 -1,800 Descending Chicago Center
08:37PM 41.2669 -89.1611 54° Northeast 437 503 19,100 -2,340 Descending Chicago Center
08:38PM 41.3350 -89.0333 55° Northeast 429 494 16,300 -2,580 Descending Chicago Center
08:39PM 41.4025 -88.9081 54° Northeast 419 482 13,800 -2,460 Descending Chicago Center
08:40PM 41.4794 -88.7675 54° Northeast 397 457 11,300 -1,380 Descending Chicago Center
08:41PM 41.5375 -88.6450 58° Northeast 390 449 11,000 -180 Descending Chicago Center
08:42PM 41.5872 -88.5164 63° Northeast 390 449 11,000  Level Chicago Center
08:43PM 41.6481 -88.4008 55° Northeast 380 437 11,000 -300 Level Chicago Center
08:44PM 41.7083 -88.2953 53° Northeast 351 404 10,500 -960 Descending Chicago Center
08:45PM 41.7628 -88.2033 52° Northeast 316 364 9,100 -1,440 Descending Chicago Center
08:46PM 41.8253 -88.0964 52° Northeast 304 350 7,600 -1,020 Descending Chicago Center
08:47PM 41.9000 -88.0667 16° North 263 303 7,100 -300 Descending Chicago TRACON
08:48PM 41.9667 -88.0667 360° North 242 278 7,100  Level Chicago TRACON
08:49PM 42.0167 -88.1000 334° Northwest 195 224 7,100 -480 Level Chicago TRACON
08:50PM 42.0500 -88.1500 312° West 203 234 6,200 -1,200 Descending Chicago TRACON
08:51PM 42.1000 -88.1833 334° Northwest 212 244 4,700 -1,080 Descending Chicago TRACON
08:52PM 42.1500 -88.1333 37° Northeast 218 251 4,100 -480 Descending Chicago TRACON
08:53PM 42.1167 -88.0667 124° Southeast 169 194 3,800 -540 Descending Chicago TRACON
08:54PM 42.0833 -88.0333 143° Southeast 165 190 3,100 -900 Descending Chicago TRACON
08:55PM 42.0500 -88.0000 143° Southeast 158 182 2,200 -780 Descending Chicago TRACON
08:56PM 42.0167 -87.9667 143° Southeast 122 140 1,600 -660 Descending Chicago TRACON
08:57PM 42.0000 -87.9333 124° Southeast 128 147 900 -720 Descending Chicago TRACON
08:59PM 41.9817 -87.9067 140° Southeast  Level Estimated